Time;durP1;ratioP1;P1;durP2;ratioP2;P2;SDS_P1;SDS_P2;PMS_P1;PMS_P2;Temp;Humidity;BMP_temperature;BMP_pressure;BME280_temperature;BME280_humidity;BME280_pressure;Samples;Min_cycle;Max_cycle;Signal;HPM_P1;HPM_P2
2023/01/18 00:01:35;;;;;;;2.40;1.38;;;;;;;13.34;57.13;97970.63;5013847;28;20037;-84
2023/01/18 00:04:00;;;;;;;4.38;1.65;;;;;;;13.38;57.09;97981.06;5035390;28;20059;-84
2023/01/18 00:06:26;;;;;;;4.63;2.10;;;;;;;13.39;57.88;97975.06;5035126;28;20468;-84
2023/01/18 00:08:53;;;;;;;3.28;1.42;;;;;;;13.34;58.66;97987.47;5017327;28;20033;-84
2023/01/18 00:11:18;;;;;;;5.97;1.25;;;;;;;13.28;58.87;97989.06;5017371;28;20064;-85
2023/01/18 00:13:45;;;;;;;3.28;1.20;;;;;;;13.24;59.55;97954.50;5017252;28;20784;-84
2023/01/18 00:16:18;;;;;;;4.18;2.00;;;;;;;13.25;59.72;97949.72;5017193;28;20030;-84
2023/01/18 00:18:50;;;;;;;7.15;1.92;;;;;;;13.26;59.92;97973.78;5017573;28;20018;-84
2023/01/18 00:21:15;;;;;;;5.47;1.65;;;;;;;13.13;60.94;97959.22;5017252;28;20064;-84
2023/01/18 00:23:41;;;;;;;2.10;1.20;;;;;;;13.25;59.59;97969.38;5033379;28;20546;-84
2023/01/18 00:26:09;;;;;;;6.07;2.05;;;;;;;13.32;59.43;97955.34;5017156;28;20083;-84
2023/01/18 00:28:35;;;;;;;6.07;1.45;;;;;;;13.46;58.88;97972.34;5017546;28;20471;-84
2023/01/18 00:31:01;;;;;;;2.80;1.55;;;;;;;13.45;59.64;97978.34;5016942;28;20032;-84
2023/01/18 00:33:27;;;;;;;4.78;1.55;;;;;;;13.44;59.07;97976.75;5033260;28;20025;-84
2023/01/18 00:36:00;;;;;;;3.72;1.65;;;;;;;13.39;59.27;97991.94;5016901;28;20507;-84
2023/01/18 00:38:27;;;;;;;6.60;3.25;;;;;;;13.32;58.94;97970.22;5016937;28;20454;-84
2023/01/18 00:40:52;;;;;;;4.40;1.70;;;;;;;13.44;58.70;97980.34;5016674;28;20091;-85
2023/01/18 00:46:03;;;;;;;1.98;1.20;;;;;;;13.57;58.07;98008.94;5054914;28;20039;-85
2023/01/18 00:48:28;;;;;;;4.13;1.23;;;;;;;13.61;57.50;98009.75;5036462;28;20426;-84
2023/01/18 00:50:54;;;;;;;2.10;1.10;;;;;;;13.57;57.96;98011.75;5054256;28;20038;-84
2023/01/18 00:53:19;;;;;;;5.47;2.00;;;;;;;13.56;57.41;98000.88;5036255;28;20083;-84
2023/01/18 00:55:45;;;;;;;14.50;1.60;;;;;;;13.59;57.95;98022.59;5036189;28;20036;-84
2023/01/18 00:58:11;;;;;;;4.93;1.50;;;;;;;13.56;57.77;97998.91;5036298;28;20552;-85
2023/01/18 01:00:37;;;;;;;4.00;1.42;;;;;;;13.53;57.96;98005.31;5036288;28;20070;-84
2023/01/18 01:03:03;;;;;;;1.50;1.02;;;;;;;13.49;58.59;97996.03;5036080;28;20033;-84
2023/01/18 01:08:17;;;;;;;4.93;2.05;;;;;;;13.39;59.70;97983.50;5054745;28;20125;-84
2023/01/18 01:10:47;;;;;;;2.45;1.50;;;;;;;13.20;59.63;97985.34;5036143;28;20033;-85
2023/01/18 01:27:10;;;;;;;7.88;1.50;;;;;;;13.21;59.24;97963.72;5054080;28;20024;-84
2023/01/18 01:29:36;;;;;;;10.88;2.05;;;;;;;13.19;58.72;97969.72;5035558;28;20055;-84
2023/01/18 01:32:03;;;;;;;4.25;1.90;;;;;;;13.14;59.46;97972.06;5035519;28;20025;-84
2023/01/18 01:34:30;;;;;;;3.80;1.70;;;;;;;13.18;59.78;97964.50;5035325;28;20028;-84
2023/01/18 01:36:56;;;;;;;3.20;2.00;;;;;;;13.03;59.70;97961.59;5035828;28;20032;-84
2023/01/18 01:39:22;;;;;;;6.20;1.50;;;;;;;13.05;59.73;97950.78;5035467;28;20491;-84
2023/01/18 01:41:48;;;;;;;5.70;1.90;;;;;;;13.03;60.14;97949.53;5035372;28;20021;-84
2023/01/18 01:44:18;;;;;;;4.97;1.58;;;;;;;12.94;60.07;97955.50;5035614;28;20107;-84
2023/01/18 01:46:59;;;;;;;5.75;2.75;;;;;;;13.00;59.62;97951.13;5035297;28;20032;-84
2023/01/18 01:49:31;;;;;;;11.40;2.42;;;;;;;13.12;59.31;97940.78;5053252;28;20052;-84
2023/01/18 01:52:15;;;;;;;4.40;2.10;;;;;;;12.97;59.04;97915.41;5032064;28;20040;-84
2023/01/18 01:55:06;;;;;;;5.97;1.75;;;;;;;12.96;60.70;97957.88;5034716;28;20403;-84
2023/01/18 01:57:48;;;;;;;7.88;1.95;;;;;;;12.97;60.42;97943.47;5034734;28;20021;-84
2023/01/18 02:00:22;;;;;;;7.13;2.08;;;;;;;12.87;59.46;97939.41;5033178;28;20427;-84
2023/01/18 02:03:11;;;;;;;6.72;2.05;;;;;;;12.97;58.92;97949.09;5015333;28;20029;-84
2023/01/18 02:05:47;;;;;;;6.93;2.15;;;;;;;13.07;58.99;97944.75;5014752;28;20029;-84
2023/01/18 02:08:21;;;;;;;5.97;2.25;;;;;;;13.19;58.54;97957.69;5031708;28;20065;-84
2023/01/18 02:10:51;;;;;;;7.22;1.95;;;;;;;13.14;58.34;97964.47;5015164;28;20024;-84
2023/01/18 02:13:18;;;;;;;14.38;2.30;;;;;;;13.17;58.09;97946.84;5018637;28;20025;-84
2023/01/18 02:16:29;;;;;;;4.80;1.55;;;;;;;13.34;57.91;97955.81;5034766;28;20116;-84
2023/01/18 02:19:12;;;;;;;6.22;1.75;;;;;;;13.32;57.67;97952.56;5021614;28;20037;-84
2023/01/18 02:21:52;;;;;;;7.35;1.83;;;;;;;13.37;57.25;97957.00;5052491;28;20384;-84
2023/01/18 02:25:09;;;;;;;6.28;1.17;;;;;;;13.56;56.58;97956.75;5034015;28;20037;-84
2023/01/18 02:27:44;;;;;;;13.60;2.00;;;;;;;13.86;54.94;97941.66;5002290;28;20521;-83
2023/01/18 02:30:42;;;;;;;4.72;1.45;;;;;;;13.95;54.22;97932.06;5034696;28;20028;-84
2023/01/18 02:33:42;;;;;;;7.50;1.15;;;;;;;14.09;54.50;97929.28;5026603;28;20579;-83
2023/01/18 02:36:10;;;;;;;8.35;2.53;;;;;;;14.08;54.59;97935.31;4984777;28;20049;-84
2023/01/18 02:38:43;;;;;;;6.43;1.83;;;;;;;13.95;55.21;97918.81;5034492;28;20029;-84
2023/01/18 02:41:18;;;;;;;9.52;2.10;;;;;;;14.05;54.48;97942.53;5034497;28;20103;-84
2023/01/18 02:46:32;;;;;;;5.13;1.60;;;;;;;13.89;55.16;97935.25;5052681;28;20032;-84
2023/01/18 02:49:17;;;;;;;2.20;1.60;;;;;;;13.82;55.10;97935.22;5034322;28;20025;-84
2023/01/18 02:51:43;;;;;;;6.10;1.65;;;;;;;14.07;54.18;97942.94;5034292;28;20063;-83
2023/01/18 02:54:11;;;;;;;2.85;1.58;;;;;;;14.36;53.01;97940.25;5034144;28;20056;-83
2023/01/18 02:56:41;;;;;;;20.05;3.10;;;;;;;14.34;52.31;97922.94;5034176;28;20029;-85
2023/01/18 02:59:35;;;;;;;7.53;1.30;;;;;;;14.51;52.39;97924.16;5034179;28;20039;-84
2023/01/18 03:02:11;;;;;;;3.35;1.50;;;;;;;14.35;52.76;97926.56;5052249;28;20076;-84
2023/01/18 03:04:43;;;;;;;5.45;1.58;;;;;;;14.16;53.65;97923.69;5033979;28;20052;-84
2023/01/18 03:07:11;;;;;;;5.10;1.98;;;;;;;14.20;53.52;97956.66;5033968;28;20059;-83
2023/01/18 03:09:39;;;;;;;5.60;1.73;;;;;;;14.31;53.39;97954.66;5033978;28;20028;-83
2023/01/18 03:12:44;;;;;;;5.18;1.75;;;;;;;14.26;53.35;97950.22;5034043;28;20491;-83
2023/01/18 03:15:23;;;;;;;5.90;1.58;;;;;;;14.17;53.68;97953.44;5033929;28;20025;-83
2023/01/18 03:17:56;;;;;;;10.70;2.00;;;;;;;14.13;53.37;97944.19;5051724;28;20100;-83
2023/01/18 03:20:26;;;;;;;13.55;1.67;;;;;;;14.44;52.59;97953.09;5033850;28;20029;-83
2023/01/18 03:25:49;;;;;;;6.72;2.08;;;;;;;14.25;53.45;97945.03;5052034;28;19916;-83
2023/01/18 03:34:13;;;;;;;5.57;2.35;;;;;;;14.37;51.96;97922.16;5052272;28;20034;-83
2023/01/18 03:36:46;;;;;;;14.77;1.50;;;;;;;14.59;51.58;97950.31;5035567;28;20027;-83
2023/01/18 03:39:19;;;;;;;7.10;2.22;;;;;;;14.28;53.48;97942.19;5056193;28;20025;-83
2023/01/18 03:41:49;;;;;;;5.82;2.35;;;;;;;14.02;54.41;97943.34;5037653;28;20033;-83
2023/01/18 03:44:24;;;;;;;;;;;;;;;14.01;54.54;97947.34;5038095;28;20435;-84
2023/01/18 03:46:50;;;;;;;4.80;2.05;;;;;;;13.98;54.32;97951.75;5037598;28;19908;-83
2023/01/18 03:49:17;;;;;;;7.30;3.00;;;;;;;13.88;54.95;97963.75;5037633;28;20095;-83
2023/01/18 03:51:51;;;;;;;7.60;2.30;;;;;;;13.71;55.87;97968.06;5037524;28;20128;-83
2023/01/18 03:54:32;;;;;;;12.98;2.80;;;;;;;13.27;57.22;97944.50;5031364;28;20442;-83
2023/01/18 03:57:06;;;;;;;8.65;2.45;;;;;;;13.03;58.04;97930.72;5037468;28;20033;-82
2023/01/18 03:59:36;;;;;;;9.45;2.97;;;;;;;12.82;59.13;97928.53;5037172;28;20169;-83
2023/01/18 04:02:03;;;;;;;6.57;3.63;;;;;;;12.67;60.82;97971.69;5055539;28;20056;-83
2023/01/18 04:04:29;;;;;;;5.03;3.05;;;;;;;12.34;61.64;97934.91;5055227;28;20075;-83
2023/01/18 04:06:56;;;;;;;10.43;3.30;;;;;;;12.29;62.22;97947.25;5055039;28;20040;-83
2023/01/18 04:09:22;;;;;;;7.25;2.50;;;;;;;12.26;62.21;97941.63;5037184;28;20116;-83
2023/01/18 04:11:48;;;;;;;12.50;3.10;;;;;;;12.47;61.79;97964.28;5037148;28;20063;-83
2023/01/18 04:14:13;;;;;;;10.30;2.55;;;;;;;12.28;62.79;97964.47;5037015;28;20052;-82
2023/01/18 04:16:39;;;;;;;10.02;3.67;;;;;;;12.29;63.43;97963.25;5036986;28;20411;-83
2023/01/18 04:19:06;;;;;;;9.20;3.00;;;;;;;11.94;64.03;97960.47;5036910;28;20032;-83
2023/01/18 04:21:31;;;;;;;16.15;3.47;;;;;;;12.24;64.02;97986.84;5036940;28;20025;-83
2023/01/18 04:23:57;;;;;;;5.45;2.45;;;;;;;12.18;63.77;97961.13;5036792;28;20063;-83
2023/01/18 04:26:22;;;;;;;8.80;3.30;;;;;;;12.00;64.41;97952.50;5036788;28;20032;-82
2023/01/18 04:28:48;;;;;;;10.15;2.88;;;;;;;12.52;60.48;97965.09;5036780;28;20063;-83
2023/01/18 04:31:13;;;;;;;6.63;2.28;;;;;;;12.81;59.22;97956.97;5036856;28;20033;-83
2023/01/18 04:33:39;;;;;;;6.63;2.22;;;;;;;13.01;58.88;97955.53;5036621;28;20032;-83
2023/01/18 04:36:05;;;;;;;6.80;1.48;;;;;;;13.08;58.25;97965.22;5036729;28;20033;-83
2023/01/18 04:38:30;;;;;;;10.75;1.95;;;;;;;13.12;57.84;97936.00;5054703;28;20101;-83
2023/01/18 04:41:02;;;;;;;5.20;2.03;;;;;;;13.49;56.20;97956.72;5036652;28;20032;-83
2023/01/18 04:43:28;;;;;;;9.20;2.05;;;;;;;13.76;54.92;97959.28;5036480;28;20029;-84
2023/01/18 04:45:54;;;;;;;5.90;2.08;;;;;;;13.87;54.91;97965.75;5036493;28;20419;-83
2023/01/18 04:48:21;;;;;;;4.25;1.80;;;;;;;14.19;53.35;97958.66;5053951;28;20029;-82
2023/01/18 04:50:47;;;;;;;6.43;2.33;;;;;;;14.27;52.62;97937.78;5032888;28;20551;-83
2023/01/18 04:53:13;;;;;;;6.53;1.92;;;;;;;14.24;53.22;97952.66;5032999;28;20090;-83
2023/01/18 04:55:38;;;;;;;13.30;2.17;;;;;;;14.21;53.13;97942.19;5016344;28;20060;-84
2023/01/18 04:58:04;;;;;;;7.95;1.40;;;;;;;14.56;51.30;97925.78;5032890;28;20025;-83
2023/01/18 05:00:29;;;;;;;6.13;2.08;;;;;;;14.54;51.59;97947.91;5032913;28;20025;-83
2023/01/18 05:02:55;;;;;;;8.52;2.22;;;;;;;14.51;51.63;97963.56;5032877;28;20029;-83
2023/01/18 05:05:21;;;;;;;9.63;2.10;;;;;;;14.65;51.32;97970.41;5050458;28;20075;-83
2023/01/18 05:07:46;;;;;;;9.60;1.85;;;;;;;14.53;52.34;97954.72;5035993;28;20025;-83
2023/01/18 05:10:12;;;;;;;4.60;1.80;;;;;;;14.52;52.00;97967.19;5035953;28;20186;-83
2023/01/18 05:12:37;;;;;;;6.90;1.60;;;;;;;14.32;52.36;97953.47;5035941;28;20025;-83
2023/01/18 05:15:04;;;;;;;6.03;2.28;;;;;;;14.37;52.36;97964.34;5032368;28;20029;-83
2023/01/18 05:17:33;;;;;;;4.55;1.50;;;;;;;14.51;50.97;97965.59;5032579;28;20377;-83
2023/01/18 05:20:00;;;;;;;7.32;1.70;;;;;;;14.38;52.50;97977.19;5015960;28;20029;-82
2023/01/18 05:22:26;;;;;;;11.60;1.95;;;;;;;14.52;51.63;97975.63;5032179;28;20030;-83
2023/01/18 05:24:52;;;;;;;6.53;1.55;;;;;;;14.51;51.79;97966.38;5033673;28;20045;-83
2023/01/18 05:27:18;;;;;;;6.25;2.13;;;;;;;14.45;52.12;97979.22;5032386;28;20068;-83
2023/01/18 05:29:43;;;;;;;6.57;1.95;;;;;;;14.40;52.08;97979.59;5032274;28;20036;-83
2023/01/18 05:32:10;;;;;;;11.43;2.45;;;;;;;14.27;52.03;97957.47;5041441;28;20029;-83
2023/01/18 05:34:35;;;;;;;11.88;2.40;;;;;;;14.39;52.15;97973.19;5035501;28;20025;-83
2023/01/18 05:37:03;;;;;;;8.57;2.00;;;;;;;14.37;52.53;97980.41;5035505;28;20032;-84
2023/01/18 05:39:28;;;;;;;6.90;2.05;;;;;;;14.33;52.12;97960.69;5035542;28;20100;-83
2023/01/18 05:41:54;;;;;;;9.27;2.63;;;;;;;14.46;51.69;97978.81;5035376;28;20119;-84
2023/01/18 05:44:19;;;;;;;14.50;3.17;;;;;;;14.64;51.25;97986.50;5053087;28;20021;-84
2023/01/18 05:46:45;;;;;;;7.80;1.98;;;;;;;14.58;51.68;97985.28;5035448;28;20021;-83
2023/01/18 05:49:10;;;;;;;6.68;1.48;;;;;;;14.45;51.63;97954.69;5035229;28;20500;-83
2023/01/18 05:51:36;;;;;;;9.73;2.75;;;;;;;14.61;50.59;97978.88;5052911;28;20103;-83
2023/01/18 05:54:01;;;;;;;13.77;2.85;;;;;;;14.63;51.47;97990.53;5035164;28;20086;-83
2023/01/18 05:56:27;;;;;;;7.80;2.50;;;;;;;14.67;51.27;97982.88;5035181;28;20017;-83
2023/01/18 05:58:52;;;;;;;8.18;3.05;;;;;;;14.57;51.32;97975.22;5034253;28;20439;-83
2023/01/18 06:01:18;;;;;;;13.00;3.03;;;;;;;14.63;51.79;97998.97;5034032;28;20020;-84
2023/01/18 06:03:43;;;;;;;12.55;5.22;;;;;;;14.49;52.31;97982.06;5035062;28;20025;-83
2023/01/18 06:06:09;;;;;;;11.05;3.25;;;;;;;14.49;52.53;97998.94;5035004;28;20029;-83
2023/01/18 06:08:35;;;;;;;8.85;2.85;;;;;;;14.45;51.61;97979.22;5052401;28;20055;-83
2023/01/18 06:11:00;;;;;;;11.65;5.00;;;;;;;14.71;51.02;98003.38;5034379;28;20027;-82
2023/01/18 06:13:29;;;;;;;6.85;3.30;;;;;;;14.76;50.69;97990.19;5034622;28;20511;-83
2023/01/18 06:15:55;;;;;;;9.50;2.38;;;;;;;14.86;51.03;98014.72;5035039;28;20017;-83
2023/01/18 06:18:22;;;;;;;11.82;2.97;;;;;;;14.73;50.66;98009.47;5034583;28;20391;-83
2023/01/18 06:20:48;;;;;;;12.73;5.00;;;;;;;14.93;50.74;98017.53;5034455;28;20028;-83
2023/01/18 06:23:14;;;;;;;10.88;6.43;;;;;;;14.86;50.06;98007.06;5034032;28;20049;-83
2023/01/18 06:25:39;;;;;;;12.27;5.18;;;;;;;14.87;50.46;98016.34;5034545;28;20025;-83
2023/01/18 06:28:05;;;;;;;17.98;10.98;;;;;;;14.91;50.49;98033.22;5034365;28;20028;-83
2023/01/18 06:30:32;;;;;;;10.63;3.10;;;;;;;15.06;50.07;98043.31;5031101;28;20452;-83
2023/01/18 06:33:03;;;;;;;9.50;5.78;;;;;;;15.04;50.51;98040.09;5046394;28;20052;-85
2023/01/18 06:35:29;;;;;;;10.27;5.32;;;;;;;15.21;49.08;98058.22;5034161;28;20514;-86
2023/01/18 06:37:55;;;;;;;20.55;7.03;;;;;;;15.13;49.67;98043.28;5034246;28;20134;-86
2023/01/18 06:40:21;;;;;;;17.15;8.20;;;;;;;15.13;49.52;98048.13;5033312;28;20020;-87
2023/01/18 06:42:47;;;;;;;15.57;10.13;;;;;;;15.09;49.47;98053.75;5032937;28;20035;-86
2023/01/18 06:45:15;;;;;;;34.17;17.25;;;;;;;14.55;54.15;98048.78;5051940;28;20052;-86
2023/01/18 06:47:42;;;;;;;31.02;15.93;;;;;;;14.20;56.57;98066.31;5034240;28;20021;-86
2023/01/18 06:50:09;;;;;;;21.25;9.30;;;;;;;13.26;60.16;98072.84;5034176;28;20066;-87
2023/01/18 06:52:34;;;;;;;15.77;5.72;;;;;;;12.83;61.87;98055.59;5044118;28;20021;-85
2023/01/18 06:55:00;;;;;;;28.80;5.10;;;;;;;12.83;62.22;98075.25;5033985;28;20413;-86
2023/01/18 06:57:25;;;;;;;34.15;7.47;;;;;;;12.43;63.88;98041.97;5035108;28;20021;-85
2023/01/18 06:59:52;;;;;;;15.80;7.28;;;;;;;12.84;62.96;98071.25;5050657;28;20053;-86
2023/01/18 07:02:19;;;;;;;18.70;8.35;;;;;;;12.82;63.31;98076.44;5051147;28;20017;-85
2023/01/18 07:04:45;;;;;;;13.00;6.75;;;;;;;12.57;63.14;98030.06;5046770;28;20017;-85
2023/01/18 07:07:11;;;;;;;13.95;5.47;;;;;;;12.68;62.99;98077.91;5034790;28;20094;-86
2023/01/18 07:09:37;;;;;;;15.68;4.38;;;;;;;13.17;60.78;98058.34;5033706;28;20063;-85
2023/01/18 07:12:03;;;;;;;14.27;3.40;;;;;;;13.56;60.84;98074.75;5033714;28;20052;-86
2023/01/18 07:14:29;;;;;;;15.43;5.38;;;;;;;13.56;60.00;98046.66;5033802;28;20025;-84
2023/01/18 07:16:54;;;;;;;8.65;3.63;;;;;;;13.61;60.18;98073.56;5033952;28;20091;-85
2023/01/18 07:19:20;;;;;;;12.45;3.95;;;;;;;13.59;60.61;98059.13;5033910;28;20032;-85
2023/01/18 07:21:45;;;;;;;15.57;4.82;;;;;;;13.83;59.37;98076.53;5050501;28;20483;-84
2023/01/18 07:24:11;;;;;;;13.57;3.13;;;;;;;14.56;54.38;98072.91;5032859;28;20041;-84
2023/01/18 07:26:36;;;;;;;7.95;2.25;;;;;;;15.07;52.34;98072.25;5051654;28;20041;-84
2023/01/18 07:29:02;;;;;;;8.95;4.68;;;;;;;15.52;50.46;98071.91;5033770;28;20087;-85
2023/01/18 07:31:28;;;;;;;11.32;3.70;;;;;;;15.66;50.12;98056.97;5033503;28;20456;-83
2023/01/18 07:33:54;;;;;;;13.27;5.53;;;;;;;15.78;49.79;98052.97;5033267;28;20487;-84
2023/01/18 07:36:21;;;;;;;8.23;4.18;;;;;;;15.98;49.23;98078.72;5024074;28;20029;-84
2023/01/18 07:38:47;;;;;;;12.30;3.80;;;;;;;16.17;49.00;98087.94;5027080;28;20074;-84
2023/01/18 07:41:15;;;;;;;11.13;3.35;;;;;;;16.14;47.95;98067.78;5033671;28;20033;-84
2023/01/18 07:43:42;;;;;;;9.25;3.20;;;;;;;16.44;47.82;98104.41;5051872;28;20094;-84
2023/01/18 07:46:15;;;;;;;8.38;2.53;;;;;;;16.61;46.96;98097.88;5049854;28;20029;-84
2023/01/18 07:48:40;;;;;;;15.43;4.03;;;;;;;16.67;46.98;98093.44;5033660;28;20028;-84
2023/01/18 07:51:08;;;;;;;8.80;2.70;;;;;;;16.66;47.30;98083.34;5051479;28;20029;-84
2023/01/18 07:53:35;;;;;;;6.93;2.25;;;;;;;16.74;46.32;98083.31;5033535;28;20021;-84
2023/01/18 07:56:03;;;;;;;10.48;3.35;;;;;;;16.95;46.09;98105.78;5033587;28;20029;-84
2023/01/18 07:58:29;;;;;;;3.55;1.52;;;;;;;16.88;45.60;98110.69;5046430;28;20083;-84
2023/01/18 08:01:01;;;;;;;10.15;3.55;;;;;;;17.04;45.72;98099.72;5051347;28;20025;-84
2023/01/18 08:03:26;;;;;;;13.52;3.83;;;;;;;16.90;45.84;98105.41;5033416;28;20032;-84
2023/01/18 08:05:52;;;;;;;18.23;6.05;;;;;;;16.98;45.25;98098.53;5033261;28;20487;-84
2023/01/18 08:08:17;;;;;;;9.18;2.42;;;;;;;17.02;45.60;98102.16;5030152;28;20060;-84
2023/01/18 08:10:43;;;;;;;11.35;2.72;;;;;;;17.09;46.08;98104.13;5029783;28;20017;-85
2023/01/18 08:13:09;;;;;;;17.25;3.10;;;;;;;17.05;45.47;98103.34;5013423;28;20037;-84
2023/01/18 08:15:36;;;;;;;11.07;3.28;;;;;;;17.26;44.15;98114.53;5041351;28;20068;-83
2023/01/18 08:18:03;;;;;;;14.07;3.35;;;;;;;17.39;44.34;98125.34;5033069;28;20490;-84
2023/01/18 08:20:29;;;;;;;13.30;3.97;;;;;;;17.45;44.72;98134.19;5032936;28;20462;-84
2023/01/18 08:22:57;;;;;;;7.10;2.63;;;;;;;17.50;44.16;98134.56;5049835;28;20110;-84
2023/01/18 08:25:28;;;;;;;16.48;8.15;;;;;;;17.68;44.18;98125.94;5037418;28;20568;-84
2023/01/18 08:27:57;;;;;;;13.30;4.78;;;;;;;17.80;44.22;98130.28;5036941;28;20028;-84
2023/01/18 08:30:29;;;;;;;16.13;10.63;;;;;;;17.83;43.01;98129.44;5020511;28;20529;-83
2023/01/18 08:32:56;;;;;;;10.77;3.47;;;;;;;17.94;43.20;98122.88;5035799;28;20556;-84
2023/01/18 08:35:33;;;;;;;;;;;;;;;;;;;;;
2023/01/18 08:38:03;;;;;;;10.23;3.45;;;;;;;18.13;42.43;98144.16;5054354;28;20021;-83
2023/01/18 08:40:29;;;;;;;16.33;10.50;;;;;;;18.34;42.16;98134.66;5036590;28;20037;-85
2023/01/18 08:43:00;;;;;;;6.95;3.13;;;;;;;18.30;42.00;98139.53;5036353;28;20583;-84
2023/01/18 08:45:26;;;;;;;13.40;5.85;;;;;;;18.27;41.76;98131.91;5054695;28;20397;-83
2023/01/18 08:48:01;;;;;;;18.83;13.60;;;;;;;18.30;41.66;98127.44;5036465;28;20072;-84
2023/01/18 08:50:41;;;;;;;13.48;5.72;;;;;;;18.34;42.17;98129.00;5036364;28;20025;-85
2023/01/18 08:53:07;;;;;;;10.57;2.30;;;;;;;18.13;41.87;98132.03;5035894;28;20428;-83
2023/01/18 08:55:37;;;;;;;7.00;1.60;;;;;;;18.38;42.22;98158.06;5036301;28;20029;-84
2023/01/18 08:58:03;;;;;;;11.15;2.92;;;;;;;18.43;42.38;98155.97;5035842;28;20036;-84
2023/01/18 09:00:31;;;;;;;9.88;2.30;;;;;;;18.40;41.79;98154.00;5035748;28;20051;-84
2023/01/18 09:02:57;;;;;;;9.07;2.20;;;;;;;18.45;40.72;98157.19;5035796;28;20025;-84
2023/01/18 09:05:24;;;;;;;10.80;3.28;;;;;;;18.54;41.52;98158.72;5034888;28;20029;-83
2023/01/18 09:07:52;;;;;;;12.98;6.18;;;;;;;18.73;40.71;98168.63;5046170;28;20486;-84
2023/01/18 09:10:20;;;;;;;23.75;11.43;;;;;;;18.86;40.62;98137.69;5033307;28;20029;-84
2023/01/18 09:12:48;;;;;;;11.05;4.50;;;;;;;18.88;40.24;98153.03;5035819;28;20036;-83
2023/01/18 09:15:13;;;;;;;9.27;3.00;;;;;;;18.93;40.27;98157.44;5035336;28;20025;-84
2023/01/18 09:17:39;;;;;;;14.20;2.28;;;;;;;18.92;39.73;98142.47;5035807;28;20116;-84
2023/01/18 09:20:09;;;;;;;15.27;3.47;;;;;;;19.10;39.85;98144.31;5048710;28;20024;-85
2023/01/18 09:22:35;;;;;;;11.48;2.38;;;;;;;18.97;39.57;98120.56;5037837;28;20029;-84
2023/01/18 09:25:01;;;;;;;11.25;3.13;;;;;;;19.02;38.49;98111.63;5035589;28;20148;-83
2023/01/18 09:27:27;;;;;;;7.63;1.63;;;;;;;18.99;39.47;98129.44;5050387;28;20510;-84
2023/01/18 09:29:52;;;;;;;11.23;3.78;;;;;;;19.07;39.63;98143.13;5054887;28;20056;-83
2023/01/18 09:32:19;;;;;;;7.45;2.17;;;;;;;19.07;39.43;98140.28;5056113;28;20025;-84
2023/01/18 09:34:48;;;;;;;6.32;2.13;;;;;;;19.19;38.80;98155.94;5036905;28;20515;-83
2023/01/18 09:37:13;;;;;;;8.05;2.30;;;;;;;19.34;40.02;98164.22;5035523;28;20025;-84
2023/01/18 09:39:42;;;;;;;9.48;2.05;;;;;;;19.43;38.67;98163.69;5035395;28;20450;-84
2023/01/18 09:42:28;;;;;;;9.52;2.20;;;;;;;19.20;39.41;98160.38;5034519;28;20025;-84
2023/01/18 09:45:02;;;;;;;18.02;2.22;;;;;;;19.37;39.88;98171.88;5052796;28;20021;-83
2023/01/18 09:47:33;;;;;;;5.85;1.90;;;;;;;19.26;39.04;98152.19;5034245;28;20102;-84
2023/01/18 09:50:01;;;;;;;11.48;2.08;;;;;;;19.34;38.96;98169.88;5034775;28;20025;-83
2023/01/18 09:52:57;;;;;;;7.90;2.28;;;;;;;19.24;39.55;98188.63;5034985;28;20032;-83
2023/01/18 09:55:41;;;;;;;11.55;3.10;;;;;;;19.35;39.08;98194.16;5015241;28;20044;-83
2023/01/18 09:58:25;;;;;;;11.38;1.60;;;;;;;19.20;39.08;98208.53;5046744;28;20116;-84
2023/01/18 10:00:57;;;;;;;9.88;2.35;;;;;;;19.44;38.68;98191.63;5033581;28;22000;-83
2023/01/18 10:03:49;;;;;;;17.30;3.08;;;;;;;19.49;39.55;98176.94;5052385;28;20079;-83
2023/01/18 10:06:26;;;;;;;6.13;1.88;;;;;;;19.72;37.74;98166.91;5051191;28;20563;-84
2023/01/18 10:09:10;;;;;;;8.05;1.67;;;;;;;19.91;37.20;98195.78;5030986;28;20025;-85
2023/01/18 10:11:47;;;;;;;7.43;1.70;;;;;;;20.18;37.48;98203.50;5054064;28;20384;-85
2023/01/18 10:14:36;;;;;;;11.30;2.22;;;;;;;20.01;37.05;98177.78;5053715;28;20054;-83
2023/01/18 10:17:10;;;;;;;8.57;1.63;;;;;;;20.04;37.09;98188.31;4990087;28;20120;-84
2023/01/18 10:19:36;;;;;;;11.13;1.40;;;;;;;20.43;36.28;98194.50;5020139;28;20021;-84
2023/01/18 10:22:15;;;;;;;5.85;1.75;;;;;;;20.17;36.72;98208.34;5035773;28;20021;-83
2023/01/18 10:25:02;;;;;;;8.50;2.80;;;;;;;20.22;36.64;98184.34;5026116;28;20099;-84
2023/01/18 10:28:03;;;;;;;7.22;1.40;;;;;;;20.23;35.89;98188.00;5034196;28;20017;-84
2023/01/18 10:30:47;;;;;;;12.05;2.72;;;;;;;20.17;36.41;98199.84;5034070;28;20029;-83
2023/01/18 10:33:15;;;;;;;11.25;2.10;;;;;;;20.22;35.71;98215.56;5034109;28;20033;-84
2023/01/18 10:35:46;;;;;;;14.93;3.00;;;;;;;20.29;36.03;98192.75;5034053;28;21800;-84
2023/01/18 10:38:16;;;;;;;12.15;3.20;;;;;;;20.27;36.04;98191.56;5034120;28;20041;-84
2023/01/18 10:40:48;;;;;;;9.70;1.88;;;;;;;20.08;36.65;98201.63;5034222;28;20044;-83
2023/01/18 10:43:16;;;;;;;16.10;3.25;;;;;;;20.18;37.01;98200.66;5034066;28;20029;-84
2023/01/18 10:45:41;;;;;;;6.82;1.83;;;;;;;20.01;36.26;98196.88;5033426;28;20051;-83
2023/01/18 10:48:16;;;;;;;12.70;2.90;;;;;;;20.10;37.29;98219.03;5033919;28;20060;-83
2023/01/18 10:50:46;;;;;;;8.35;2.00;;;;;;;19.74;36.23;98187.13;5014353;28;20025;-83
2023/01/18 10:53:32;;;;;;;14.60;2.83;;;;;;;19.89;36.39;98213.25;5030765;28;20116;-83
2023/01/18 10:56:10;;;;;;;13.43;2.65;;;;;;;19.76;37.11;98187.47;5030669;28;20045;-83
2023/01/18 10:58:51;;;;;;;6.10;1.70;;;;;;;19.94;36.89;98223.31;5014252;28;20551;-83
2023/01/18 11:01:27;;;;;;;5.75;1.50;;;;;;;19.83;36.33;98219.81;5023102;28;20479;-83
2023/01/18 11:04:01;;;;;;;9.80;2.33;;;;;;;19.67;37.21;98197.78;5033733;28;20048;-83
2023/01/18 11:06:28;;;;;;;10.20;1.60;;;;;;;19.96;36.61;98229.38;5050819;28;20499;-84
2023/01/18 11:08:54;;;;;;;10.38;2.35;;;;;;;19.85;36.81;98220.19;5030751;28;20026;-83
2023/01/18 11:14:22;;;;;;;8.15;2.30;;;;;;;19.72;36.60;98214.28;5051796;28;20090;-83
2023/01/18 11:16:57;;;;;;;12.07;2.40;;;;;;;19.74;37.11;98220.38;5033953;28;20020;-83
2023/01/18 11:19:22;;;;;;;6.70;2.58;;;;;;;19.72;37.52;98228.47;5033573;28;20814;-84
2023/01/18 11:21:49;;;;;;;7.05;1.90;;;;;;;19.44;37.68;98193.63;5033810;28;20036;-83
2023/01/18 11:24:30;;;;;;;9.07;1.80;;;;;;;19.69;37.45;98215.16;5049688;28;20037;-83
2023/01/18 11:27:02;;;;;;;32.45;2.63;;;;;;;19.50;37.55;98208.97;5033648;28;20064;-83
2023/01/18 11:29:32;;;;;;;10.00;2.92;;;;;;;19.42;38.14;98211.06;5033607;28;20095;-82
2023/01/18 11:32:04;;;;;;;;;;;;;;;19.48;38.20;98203.69;5050755;28;20100;-83
2023/01/18 11:34:42;;;;;;;11.82;2.60;;;;;;;19.38;37.73;98184.81;5051383;28;20385;-82
2023/01/18 11:37:33;;;;;;;17.05;2.40;;;;;;;19.43;37.39;98203.38;5050129;28;20017;-83
2023/01/18 11:39:59;;;;;;;18.73;3.33;;;;;;;19.22;37.72;98194.75;5033400;28;20525;-83
2023/01/18 11:42:24;;;;;;;16.45;3.42;;;;;;;19.05;38.46;98195.75;5033362;28;20048;-83
2023/01/18 11:44:56;;;;;;;17.92;2.22;;;;;;;19.21;38.62;98212.16;5051039;28;20095;-83
2023/01/18 11:47:36;;;;;;;16.60;2.33;;;;;;;19.37;38.50;98197.38;5032210;28;20028;-84
2023/01/18 11:50:14;;;;;;;18.17;3.15;;;;;;;19.27;38.15;98195.50;5031822;28;20561;-84
2023/01/18 11:53:02;;;;;;;17.48;2.88;;;;;;;19.31;37.98;98204.78;5032393;28;20028;-84
2023/01/18 11:55:45;;;;;;;11.38;2.78;;;;;;;19.22;38.14;98213.75;5033269;28;20029;-83
2023/01/18 11:58:28;;;;;;;15.85;2.38;;;;;;;19.40;38.18;98224.88;5031201;28;20484;-83
2023/01/18 12:00:58;;;;;;;15.93;2.88;;;;;;;19.45;38.78;98220.75;5049183;28;20029;-83
2023/01/18 12:03:44;;;;;;;16.87;3.00;;;;;;;19.34;37.52;98212.41;5036906;28;20025;-83
2023/01/18 12:06:48;;;;;;;22.50;2.45;;;;;;;19.39;37.80;98213.97;5036616;28;20029;-83
2023/01/18 12:09:51;;;;;;;13.43;2.45;;;;;;;19.33;37.72;98230.66;5054405;28;20427;-83
2023/01/18 12:12:29;;;;;;;13.55;2.88;;;;;;;19.25;37.63;98217.78;5002061;28;20037;-82
2023/01/18 12:15:33;;;;;;;16.02;3.58;;;;;;;19.03;37.69;98201.88;5036643;28;20427;-82
2023/01/18 12:18:11;;;;;;;22.65;3.90;;;;;;;19.30;37.38;98243.63;5028196;28;20510;-83
2023/01/18 12:20:42;;;;;;;22.88;3.40;;;;;;;19.35;37.63;98248.81;5028621;28;20021;-82
2023/01/18 12:23:35;;;;;;;19.58;2.60;;;;;;;19.42;37.12;98250.75;5036531;28;20564;-84